Time;durP1;ratioP1;P1;durP2;ratioP2;P2;SDS_P1;SDS_P2;PMS_P1;PMS_P2;Temp;Humidity;BMP_temperature;BMP_pressure;BME280_temperature;BME280_humidity;BME280_pressure;Samples;Min_cycle;Max_cycle;Signal;HPM_P1;HPM_P2
2021/09/17 00:02:12;;;;;;;8.48;2.58;;;;;;;;;;5009761;28;20014;-42
2021/09/17 00:04:37;;;;;;;6.60;2.75;;;;;;;;;;5012804;28;20022;-42
2021/09/17 00:07:02;;;;;;;5.90;1.70;;;;;;;;;;5019208;28;20032;-41
2021/09/17 00:09:28;;;;;;;5.72;2.47;;;;;;;;;;5013845;28;20443;-41
2021/09/17 00:11:53;;;;;;;3.85;1.80;;;;;;;;;;5019755;28;20034;-41
2021/09/17 00:14:18;;;;;;;18.88;2.80;;;;;;;;;;5022389;28;20009;-42
2021/09/17 00:16:44;;;;;;;3.10;1.42;;;;;;;;;;5014873;28;20033;-44
2021/09/17 00:19:09;;;;;;;11.55;1.55;;;;;;;;;;5020353;28;20022;-42
2021/09/17 00:21:35;;;;;;;2.22;1.30;;;;;;;;;;5014660;28;20033;-42
2021/09/17 00:24:00;;;;;;;7.65;1.85;;;;;;;;;;5019875;28;20817;-45
2021/09/17 00:26:25;;;;;;;14.68;2.20;;;;;;;;;;5020583;28;20074;-45
2021/09/17 00:28:51;;;;;;;5.03;2.25;;;;;;;;;;5018953;28;20059;-47
2021/09/17 00:31:16;;;;;;;7.88;2.42;;;;;;;;;;5016214;28;20116;-44
2021/09/17 00:33:42;;;;;;;3.15;2.00;;;;;;;;;;5019784;28;20056;-42
2021/09/17 00:36:07;;;;;;;17.88;3.45;;;;;;;;;;5016813;28;20067;-43
2021/09/17 00:38:32;;;;;;;3.40;1.83;;;;;;;;;;5018012;28;20080;-45
2021/09/17 00:40:58;;;;;;;9.00;4.28;;;;;;;;;;5018070;28;20501;-44
2021/09/17 00:43:23;;;;;;;8.18;4.18;;;;;;;;;;5018529;28;20041;-44
2021/09/17 00:45:48;;;;;;;9.52;2.95;;;;;;;;;;5019731;28;20025;-46
2021/09/17 00:48:14;;;;;;;17.75;5.07;;;;;;;;;;5020373;28;20032;-47
2021/09/17 00:50:39;;;;;;;6.53;2.38;;;;;;;;;;5016868;28;20843;-45
2021/09/17 00:53:04;;;;;;;5.60;1.98;;;;;;;;;;5016495;28;20021;-44
2021/09/17 00:55:31;;;;;;;15.05;2.55;;;;;;;;;;5013408;28;20022;-44
2021/09/17 00:57:56;;;;;;;7.55;3.22;;;;;;;;;;5011121;28;20420;-43
2021/09/17 01:00:22;;;;;;;1.83;1.38;;;;;;;;;;5018755;28;20025;-43
2021/09/17 01:02:47;;;;;;;12.50;3.00;;;;;;;;;;5018466;28;20037;-41
2021/09/17 01:05:13;;;;;;;15.18;3.20;;;;;;;;;;5021737;28;20413;-40
2021/09/17 01:07:38;;;;;;;8.13;2.28;;;;;;;;;;5019699;28;20045;-43
2021/09/17 01:10:04;;;;;;;3.97;1.80;;;;;;;;;;5009178;28;20505;-43
2021/09/17 01:12:30;;;;;;;4.78;1.77;;;;;;;;;;5017026;28;20027;-41
2021/09/17 01:14:56;;;;;;;13.38;2.33;;;;;;;;;;5016297;28;20022;-43
2021/09/17 01:17:21;;;;;;;5.38;2.35;;;;;;;;;;5020876;28;20063;-41
2021/09/17 01:19:47;;;;;;;13.45;1.33;;;;;;;;;;5023203;28;20017;-41
2021/09/17 01:22:12;;;;;;;10.68;2.65;;;;;;;;;;5014783;28;20036;-40
2021/09/17 01:24:38;;;;;;;6.22;3.25;;;;;;;;;;5017740;28;20679;-40
2021/09/17 01:27:03;;;;;;;28.85;3.85;;;;;;;;;;5019078;28;20025;-40
2021/09/17 01:29:29;;;;;;;6.13;2.60;;;;;;;;;;5016822;28;20040;-44
2021/09/17 01:31:54;;;;;;;11.93;2.88;;;;;;;;;;5014603;28;20026;-44
2021/09/17 01:34:21;;;;;;;3.67;2.03;;;;;;;;;;5007940;28;20449;-45
2021/09/17 01:36:47;;;;;;;10.60;2.65;;;;;;;;;;5016939;28;20086;-40
2021/09/17 01:39:12;;;;;;;7.75;2.47;;;;;;;;;;5022862;28;20033;-40
2021/09/17 01:41:38;;;;;;;12.48;2.58;;;;;;;;;;5012963;28;20381;-41
2021/09/17 01:44:03;;;;;;;9.40;2.30;;;;;;;;;;5017909;28;20021;-41
2021/09/17 01:46:29;;;;;;;7.38;2.78;;;;;;;;;;5016839;28;20079;-43
2021/09/17 01:48:54;;;;;;;3.42;2.10;;;;;;;;;;5011630;28;20027;-42
2021/09/17 01:51:19;;;;;;;12.75;1.75;;;;;;;;;;5015435;28;20034;-43
2021/09/17 01:53:44;;;;;;;7.20;2.60;;;;;;;;;;5019633;28;20122;-45
2021/09/17 01:56:10;;;;;;;8.80;3.30;;;;;;;;;;5015312;28;20228;-45
2021/09/17 01:58:35;;;;;;;5.43;2.05;;;;;;;;;;5015033;28;20116;-42
2021/09/17 02:01:01;;;;;;;5.43;1.60;;;;;;;;;;5010578;28;20052;-40
2021/09/17 02:03:26;;;;;;;4.82;2.90;;;;;;;;;;5016149;28;20582;-41
2021/09/17 02:05:51;;;;;;;8.05;2.95;;;;;;;;;;5014283;28;20058;-41
2021/09/17 02:08:17;;;;;;;7.85;3.72;;;;;;;;;;5014443;28;20425;-40
2021/09/17 02:10:42;;;;;;;6.88;1.60;;;;;;;;;;5004753;28;20026;-42
2021/09/17 02:13:08;;;;;;;7.72;2.55;;;;;;;;;;5008026;28;20500;-43
2021/09/17 02:15:33;;;;;;;8.43;2.70;;;;;;;;;;5021363;28;20244;-41
2021/09/17 02:17:59;;;;;;;16.02;5.18;;;;;;;;;;5018681;28;20022;-45
2021/09/17 02:20:24;;;;;;;9.00;3.15;;;;;;;;;;5018189;28;20022;-44
2021/09/17 02:22:49;;;;;;;9.50;4.00;;;;;;;;;;5011457;28;20058;-46
2021/09/17 02:25:15;;;;;;;5.88;4.15;;;;;;;;;;5017078;28;20037;-43
2021/09/17 02:27:40;;;;;;;14.80;5.40;;;;;;;;;;5014150;28;20029;-44
2021/09/17 02:30:07;;;;;;;13.88;4.78;;;;;;;;;;5015675;28;20025;-41
2021/09/17 02:32:32;;;;;;;8.70;6.80;;;;;;;;;;5018711;28;20122;-43
2021/09/17 02:34:58;;;;;;;7.70;3.17;;;;;;;;;;5013475;28;20107;-43
2021/09/17 02:37:23;;;;;;;3.45;1.77;;;;;;;;;;5017014;28;20025;-40
2021/09/17 02:39:48;;;;;;;7.38;2.95;;;;;;;;;;5016073;28;20374;-41
2021/09/17 02:42:14;;;;;;;9.35;2.65;;;;;;;;;;5011737;28;20590;-42
2021/09/17 02:44:39;;;;;;;5.72;2.80;;;;;;;;;;5011906;28;20019;-45
2021/09/17 02:47:04;;;;;;;5.45;2.55;;;;;;;;;;5016032;28;20152;-45
2021/09/17 02:49:33;;;;;;;2.65;1.88;;;;;;;;;;5014870;28;20022;-44
2021/09/17 02:51:58;;;;;;;8.20;1.50;;;;;;;;;;5012968;28;20100;-41
2021/09/17 02:54:24;;;;;;;4.60;2.08;;;;;;;;;;5016337;28;20141;-40
2021/09/17 02:56:49;;;;;;;11.70;4.07;;;;;;;;;;5017778;28;20021;-45
2021/09/17 02:59:14;;;;;;;5.53;2.35;;;;;;;;;;5016236;28;20021;-42
2021/09/17 03:01:40;;;;;;;5.10;2.83;;;;;;;;;;5015788;28;20549;-43
2021/09/17 03:04:05;;;;;;;10.32;2.70;;;;;;;;;;5015383;28;20037;-41
2021/09/17 03:06:30;;;;;;;4.25;1.77;;;;;;;;;;5011731;28;20049;-42
2021/09/17 03:08:56;;;;;;;6.50;1.67;;;;;;;;;;5019454;28;20057;-41
2021/09/17 03:11:21;;;;;;;4.15;2.25;;;;;;;;;;5017029;28;20421;-44
2021/09/17 03:13:46;;;;;;;5.82;2.63;;;;;;;;;;5021893;28;20064;-40
2021/09/17 03:16:12;;;;;;;11.07;3.58;;;;;;;;;;5020997;28;20052;-41
2021/09/17 03:18:37;;;;;;;4.25;2.17;;;;;;;;;;5019210;28;20025;-39
2021/09/17 03:21:03;;;;;;;7.70;2.88;;;;;;;;;;5017632;28;20489;-41
2021/09/17 03:23:28;;;;;;;11.90;2.45;;;;;;;;;;5023721;28;20520;-41
2021/09/17 03:25:53;;;;;;;17.60;2.85;;;;;;;;;;5018243;28;20021;-42
2021/09/17 03:28:19;;;;;;;5.55;1.23;;;;;;;;;;5022174;28;20676;-44
2021/09/17 03:30:44;;;;;;;19.52;3.17;;;;;;;;;;5022602;28;20029;-41
2021/09/17 03:33:11;;;;;;;4.90;1.27;;;;;;;;;;5021644;28;20029;-45
2021/09/17 03:35:37;;;;;;;2.90;1.30;;;;;;;;;;5023225;28;20105;-41
2021/09/17 03:38:03;;;;;;;4.32;2.10;;;;;;;;;;5012636;28;20028;-43
2021/09/17 03:40:28;;;;;;;9.13;2.40;;;;;;;;;;5012879;28;20681;-41
2021/09/17 03:42:53;;;;;;;5.28;1.92;;;;;;;;;;5011656;28;20029;-40
2021/09/17 03:45:19;;;;;;;12.25;1.60;;;;;;;;;;5018686;28;20573;-41
2021/09/17 03:47:45;;;;;;;11.70;3.15;;;;;;;;;;5025481;28;20033;-42
2021/09/17 03:50:10;;;;;;;17.73;2.83;;;;;;;;;;5019646;28;20053;-42
2021/09/17 03:52:36;;;;;;;11.60;4.07;;;;;;;;;;5018439;28;20499;-40
2021/09/17 03:55:01;;;;;;;12.10;2.92;;;;;;;;;;5019461;28;20097;-41
2021/09/17 03:57:26;;;;;;;5.03;1.92;;;;;;;;;;5016181;28;20084;-39
2021/09/17 03:59:52;;;;;;;5.40;3.00;;;;;;;;;;5014463;28;20105;-40
2021/09/17 04:02:17;;;;;;;5.05;2.47;;;;;;;;;;5018453;28;20021;-45
2021/09/17 04:04:42;;;;;;;12.70;2.17;;;;;;;;;;5017417;28;20022;-45
2021/09/17 04:07:08;;;;;;;9.07;2.92;;;;;;;;;;5017269;28;20026;-43
2021/09/17 04:09:34;;;;;;;20.52;2.22;;;;;;;;;;5024014;28;20096;-45
2021/09/17 04:11:59;;;;;;;13.30;2.08;;;;;;;;;;5016985;28;20098;-46
2021/09/17 04:14:25;;;;;;;2.72;1.75;;;;;;;;;;5016241;28;20022;-44
2021/09/17 04:16:50;;;;;;;12.50;1.55;;;;;;;;;;5014660;28;20089;-46
2021/09/17 04:19:16;;;;;;;12.68;3.00;;;;;;;;;;5014238;28;20473;-44
2021/09/17 04:21:41;;;;;;;4.07;1.17;;;;;;;;;;5012285;28;20104;-43
2021/09/17 04:24:06;;;;;;;8.27;2.65;;;;;;;;;;5016666;28;20075;-42
2021/09/17 04:26:31;;;;;;;8.50;1.60;;;;;;;;;;5012308;28;20394;-43
2021/09/17 04:28:57;;;;;;;7.13;2.78;;;;;;;;;;5019239;28;20116;-41
2021/09/17 04:31:22;;;;;;;8.13;2.78;;;;;;;;;;5021332;28;20112;-42
2021/09/17 04:33:47;;;;;;;3.75;2.13;;;;;;;;;;5017798;28;20543;-43
2021/09/17 04:36:13;;;;;;;6.82;2.55;;;;;;;;;;5020371;28;20018;-43
2021/09/17 04:38:38;;;;;;;10.52;2.25;;;;;;;;;;5015015;28;20461;-41
2021/09/17 04:41:03;;;;;;;9.63;3.22;;;;;;;;;;5011963;28;20034;-41
2021/09/17 04:43:29;;;;;;;8.10;3.15;;;;;;;;;;5018015;28;20037;-44
2021/09/17 04:45:54;;;;;;;15.88;4.55;;;;;;;;;;5009290;28;20021;-46
2021/09/17 04:48:19;;;;;;;9.32;5.30;;;;;;;;;;5013854;28;20473;-44
2021/09/17 04:50:45;;;;;;;12.88;3.35;;;;;;;;;;5017861;28;20026;-45
2021/09/17 04:53:10;;;;;;;2.83;2.17;;;;;;;;;;5016587;28;20489;-42
2021/09/17 04:55:35;;;;;;;6.43;3.42;;;;;;;;;;5017643;28;20079;-41
2021/09/17 04:58:04;;;;;;;5.78;3.15;;;;;;;;;;5020224;28;20389;-44
2021/09/17 05:00:30;;;;;;;3.15;1.58;;;;;;;;;;5014947;28;20078;-43
2021/09/17 05:02:55;;;;;;;8.50;3.47;;;;;;;;;;5015046;28;20026;-43
2021/09/17 05:05:20;;;;;;;12.25;3.60;;;;;;;;;;5012591;28;20051;-45
2021/09/17 05:07:46;;;;;;;7.68;2.42;;;;;;;;;;5013368;28;20473;-35
2021/09/17 05:10:11;;;;;;;13.95;2.63;;;;;;;;;;5013216;28;20138;-36
2021/09/17 05:12:37;;;;;;;4.72;3.15;;;;;;;;;;5019315;28;20124;-35
2021/09/17 05:15:02;;;;;;;13.35;3.25;;;;;;;;;;5015491;28;20030;-35
2021/09/17 05:17:27;;;;;;;3.13;1.88;;;;;;;;;;5019270;28;20063;-36
2021/09/17 05:19:53;;;;;;;15.63;3.35;;;;;;;;;;5019568;28;20028;-35
2021/09/17 05:22:18;;;;;;;8.00;3.22;;;;;;;;;;5019992;28;20021;-35
2021/09/17 05:24:43;;;;;;;7.20;2.70;;;;;;;;;;5020525;28;20020;-35
2021/09/17 05:27:12;;;;;;;5.70;4.13;;;;;;;;;;5021167;28;20588;-35
2021/09/17 05:29:38;;;;;;;7.28;2.95;;;;;;;;;;5017986;28;20040;-36
2021/09/17 05:32:03;;;;;;;5.22;3.80;;;;;;;;;;5013361;28;20022;-36
2021/09/17 05:34:28;;;;;;;3.83;2.28;;;;;;;;;;5017248;28;20032;-35
2021/09/17 05:36:54;;;;;;;5.55;3.92;;;;;;;;;;5017296;28;20404;-36
2021/09/17 05:39:19;;;;;;;6.68;2.35;;;;;;;;;;5017369;28;20385;-35
2021/09/17 05:41:44;;;;;;;2.97;1.48;;;;;;;;;;5017383;28;20033;-35
2021/09/17 05:44:09;;;;;;;4.85;2.03;;;;;;;;;;5017188;28;20021;-35
2021/09/17 05:46:35;;;;;;;8.38;2.65;;;;;;;;;;5014918;28;20116;-35
2021/09/17 05:49:00;;;;;;;6.78;2.25;;;;;;;;;;5007597;28;20495;-35
2021/09/17 05:51:25;;;;;;;2.72;1.73;;;;;;;;;;5012706;28;20021;-35
2021/09/17 05:53:50;;;;;;;2.22;1.40;;;;;;;;;;5015992;28;20033;-35
2021/09/17 05:56:16;;;;;;;3.28;1.70;;;;;;;;;;5016548;28;20091;-35
2021/09/17 05:58:41;;;;;;;6.85;2.42;;;;;;;;;;5019917;28;20108;-35
2021/09/17 06:01:08;;;;;;;13.48;9.40;;;;;;;;;;5014170;28;20025;-35
2021/09/17 06:03:33;;;;;;;9.95;3.10;;;;;;;;;;5016413;28;20022;-35
2021/09/17 06:05:58;;;;;;;5.53;2.67;;;;;;;;;;5012414;28;20056;-35
2021/09/17 06:08:24;;;;;;;7.03;2.60;;;;;;;;;;5009365;28;20029;-35
2021/09/17 06:10:49;;;;;;;8.25;3.08;;;;;;;;;;5016344;28;20492;-35
2021/09/17 06:13:14;;;;;;;4.63;1.65;;;;;;;;;;5010272;28;20022;-35
2021/09/17 06:15:40;;;;;;;4.18;2.35;;;;;;;;;;5021168;28;20014;-35
2021/09/17 06:18:05;;;;;;;17.95;2.92;;;;;;;;;;5016709;28;20384;-35
2021/09/17 06:20:30;;;;;;;2.75;1.75;;;;;;;;;;5013483;28;20052;-35
2021/09/17 06:22:56;;;;;;;5.53;2.45;;;;;;;;;;5010491;28;20033;-35
2021/09/17 06:25:21;;;;;;;3.83;2.08;;;;;;;;;;5010734;28;20033;-35
2021/09/17 06:27:47;;;;;;;6.55;1.55;;;;;;;;;;5008996;28;20029;-35
2021/09/17 06:30:13;;;;;;;9.13;2.45;;;;;;;;;;5011056;28;20040;-35
2021/09/17 06:32:38;;;;;;;4.82;2.13;;;;;;;;;;5016049;28;20116;-35
2021/09/17 06:35:04;;;;;;;9.25;3.88;;;;;;;;;;5016252;28;20091;-35
2021/09/17 06:37:29;;;;;;;12.73;2.33;;;;;;;;;;5022670;28;20100;-35
2021/09/17 06:39:54;;;;;;;7.88;2.28;;;;;;;;;;5020205;28;20022;-36
2021/09/17 06:42:20;;;;;;;5.20;3.88;;;;;;;;;;5016835;28;20472;-35
2021/09/17 06:44:45;;;;;;;11.52;3.28;;;;;;;;;;5015192;28;20034;-35
2021/09/17 06:47:11;;;;;;;6.78;2.53;;;;;;;;;;5017313;28;20104;-36
2021/09/17 06:49:37;;;;;;;7.40;2.63;;;;;;;;;;5020142;28;20026;-35
2021/09/17 06:52:02;;;;;;;6.50;2.72;;;;;;;;;;5019474;28;20069;-35
2021/09/17 06:54:27;;;;;;;6.03;2.42;;;;;;;;;;5020371;28;20026;-35
2021/09/17 06:56:53;;;;;;;6.28;2.80;;;;;;;;;;5019822;28;20370;-35
2021/09/17 06:59:18;;;;;;;11.43;3.10;;;;;;;;;;5014419;28;20117;-35
2021/09/17 07:01:43;;;;;;;2.83;1.75;;;;;;;;;;5018450;28;20040;-35
2021/09/17 07:04:09;;;;;;;6.97;2.55;;;;;;;;;;5012286;28;20684;-35
2021/09/17 07:06:36;;;;;;;3.85;2.83;;;;;;;;;;5014433;28;20053;-35
2021/09/17 07:09:02;;;;;;;6.38;2.05;;;;;;;;;;5017413;28;20029;-43
2021/09/17 07:11:27;;;;;;;75.82;49.00;;;;;;;;;;5014947;28;20036;-47
2021/09/17 07:13:53;;;;;;;45.97;22.85;;;;;;;;;;5017471;28;20564;-49
2021/09/17 07:16:18;;;;;;;18.73;10.85;;;;;;;;;;5011795;28;20512;-51
2021/09/17 07:18:43;;;;;;;19.42;12.63;;;;;;;;;;5016510;28;20428;-48
2021/09/17 07:21:09;;;;;;;14.43;8.98;;;;;;;;;;5021193;28;20029;-47
2021/09/17 07:23:34;;;;;;;12.43;9.35;;;;;;;;;;5021304;28;20572;-45
2021/09/17 07:25:59;;;;;;;41.42;24.40;;;;;;;;;;5021626;28;20021;-52
2021/09/17 07:28:25;;;;;;;30.00;25.15;;;;;;;;;;5020465;28;20111;-51
2021/09/17 07:30:50;;;;;;;24.08;19.00;;;;;;;;;;5018117;28;20032;-50
2021/09/17 07:33:15;;;;;;;24.00;14.68;;;;;;;;;;5015429;28;20465;-48
2021/09/17 07:35:41;;;;;;;27.98;11.57;;;;;;;;;;5014557;28;20593;-46
2021/09/17 07:38:06;;;;;;;14.20;6.80;;;;;;;;;;5016179;28;20714;-49
2021/09/17 07:40:31;;;;;;;8.85;5.13;;;;;;;;;;5015647;28;20100;-47
2021/09/17 07:42:57;;;;;;;8.73;3.88;;;;;;;;;;5023840;28;20030;-46
2021/09/17 07:45:23;;;;;;;8.48;1.92;;;;;;;;;;5016770;28;20358;-46
2021/09/17 07:47:49;;;;;;;12.35;3.75;;;;;;;;;;5023187;28;20021;-44
2021/09/17 07:50:15;;;;;;;7.95;1.77;;;;;;;;;;5021295;28;20097;-46
2021/09/17 07:52:40;;;;;;;5.43;2.60;;;;;;;;;;5015768;28;20076;-44
2021/09/17 07:55:06;;;;;;;4.03;2.08;;;;;;;;;;5021331;28;20669;-49
2021/09/17 07:57:31;;;;;;;15.38;4.47;;;;;;;;;;5020118;28;20587;-48
2021/09/17 07:59:56;;;;;;;6.45;2.28;;;;;;;;;;5019510;28;20825;-43
2021/09/17 08:02:22;;;;;;;5.28;2.03;;;;;;;;;;5019347;28;20083;-45
2021/09/17 08:04:47;;;;;;;3.40;2.35;;;;;;;;;;5023899;28;20021;-47
2021/09/17 08:07:12;;;;;;;6.65;2.50;;;;;;;;;;5018544;28;20698;-45
2021/09/17 08:09:38;;;;;;;10.55;4.97;;;;;;;;;;5019730;28;20079;-45
2021/09/17 08:12:03;;;;;;;8.10;2.28;;;;;;;;;;5020795;28;20667;-48
2021/09/17 08:14:28;;;;;;;4.05;2.90;;;;;;;;;;5013120;28;20077;-49
2021/09/17 08:16:54;;;;;;;5.38;3.33;;;;;;;;;;5010357;28;20068;-52
2021/09/17 08:19:19;;;;;;;30.00;13.65;;;;;;;;;;5021541;28;20048;-46
2021/09/17 08:21:45;;;;;;;22.80;17.15;;;;;;;;;;5017626;28;20067;-48
2021/09/17 08:24:16;;;;;;;22.15;12.57;;;;;;;;;;5024444;28;20389;-48
2021/09/17 08:26:46;;;;;;;14.88;8.30;;;;;;;;;;5020906;28;20280;-48
2021/09/17 08:29:11;;;;;;;9.80;7.50;;;;;;;;;;5020437;28;20033;-44
2021/09/17 08:31:37;;;;;;;7.05;4.18;;;;;;;;;;5022202;28;20025;-46
2021/09/17 08:34:03;;;;;;;9.20;3.90;;;;;;;;;;5017701;28;20105;-48
2021/09/17 08:36:28;;;;;;;8.88;2.92;;;;;;;;;;5012341;28;20031;-47
2021/09/17 08:38:53;;;;;;;4.85;2.75;;;;;;;;;;5012854;28;20096;-50
2021/09/17 08:41:19;;;;;;;3.88;2.67;;;;;;;;;;5015321;28;20030;-48
2021/09/17 08:43:45;;;;;;;7.15;2.80;;;;;;;;;;5017759;28;20021;-51
2021/09/17 08:46:13;;;;;;;6.43;3.17;;;;;;;;;;5018537;28;20014;-49
2021/09/17 08:48:39;;;;;;;4.68;1.50;;;;;;;;;;5016079;28;20092;-48
2021/09/17 08:51:04;;;;;;;3.88;2.15;;;;;;;;;;5013707;28;20416;-52
2021/09/17 08:53:30;;;;;;;2.40;1.83;;;;;;;;;;5010932;28;20024;-50
2021/09/17 08:55:55;;;;;;;2.75;1.15;;;;;;;;;;5016470;28;20485;-55
2021/09/17 08:58:20;;;;;;;9.48;2.72;;;;;;;;;;5017843;28;20009;-55
2021/09/17 09:00:46;;;;;;;6.07;2.25;;;;;;;;;;5011968;28;20072;-55
2021/09/17 09:03:26;;;;;;;10.05;2.30;;;;;;;;;;5012998;28;20041;-51
2021/09/17 09:05:51;;;;;;;4.18;1.90;;;;;;;;;;5020565;28;20120;-53
2021/09/17 09:08:20;;;;;;;16.67;1.73;;;;;;;;;;5015322;28;20469;-55
2021/09/17 09:10:47;;;;;;;11.20;1.65;;;;;;;;;;5017149;28;20025;-56
2021/09/17 09:13:15;;;;;;;5.72;2.92;;;;;;;;;;5017786;28;20033;-56
2021/09/17 09:15:40;;;;;;;17.83;2.10;;;;;;;;;;5019304;28;20068;-56
2021/09/17 09:18:11;;;;;;;4.53;3.22;;;;;;;;;;5016062;28;20026;-55
2021/09/17 09:20:36;;;;;;;;;;;;;;;;;;5017297;28;20029;-55
2021/09/17 09:23:06;;;;;;;7.03;2.10;;;;;;;;;;5012415;28;19940;-54
2021/09/17 09:25:32;;;;;;;12.63;2.42;;;;;;;;;;5008805;28;20041;-55
2021/09/17 09:28:14;;;;;;;8.43;2.00;;;;;;;;;;5014615;28;20037;-55
2021/09/17 09:30:39;;;;;;;6.28;3.38;;;;;;;;;;5017182;28;20108;-56
2021/09/17 09:33:21;;;;;;;10.65;6.95;;;;;;;;;;5016986;28;20112;-55
2021/09/17 09:35:46;;;;;;;12.85;4.88;;;;;;;;;;5021518;28;20017;-56
2021/09/17 09:38:12;;;;;;;9.68;3.83;;;;;;;;;;5015494;28;20070;-56
2021/09/17 09:40:38;;;;;;;6.68;3.85;;;;;;;;;;5013044;28;20029;-57
2021/09/17 09:43:03;;;;;;;9.20;3.78;;;;;;;;;;5015483;28;20089;-54
2021/09/17 09:45:28;;;;;;;9.70;3.53;;;;;;;;;;5020574;28;20029;-56
2021/09/17 09:47:57;;;;;;;8.32;3.38;;;;;;;;;;5012446;28;20105;-55
2021/09/17 09:50:23;;;;;;;7.80;2.08;;;;;;;;;;5009323;28;20511;-55
2021/09/17 09:53:02;;;;;;;6.93;2.83;;;;;;;;;;5013889;28;20496;-56
2021/09/17 09:55:28;;;;;;;13.35;3.28;;;;;;;;;;5013936;28;20018;-55
2021/09/17 09:57:54;;;;;;;9.65;3.22;;;;;;;;;;5018140;28;20049;-54
2021/09/17 10:00:20;;;;;;;4.93;2.35;;;;;;;;;;5019039;28;20017;-53
2021/09/17 10:02:45;;;;;;;5.05;1.33;;;;;;;;;;5019582;28;20072;-53
2021/09/17 10:05:12;;;;;;;7.68;1.73;;;;;;;;;;5014181;28;20503;-53
2021/09/17 10:07:38;;;;;;;3.45;1.52;;;;;;;;;;5011147;28;20025;-52
2021/09/17 10:10:16;;;;;;;3.50;2.45;;;;;;;;;;5015365;28;20022;-53
2021/09/17 10:12:41;;;;;;;5.13;2.05;;;;;;;;;;5017235;28;20072;-53
2021/09/17 10:15:08;;;;;;;22.85;13.43;;;;;;;;;;5017522;28;20021;-54
2021/09/17 10:17:34;;;;;;;2.38;0.80;;;;;;;;;;5017821;28;20565;-51
2021/09/17 10:20:00;;;;;;;8.65;2.97;;;;;;;;;;5013024;28;20025;-54
2021/09/17 10:22:25;;;;;;;7.47;2.38;;;;;;;;;;5010637;28;20112;-53
2021/09/17 10:25:01;;;;;;;12.10;4.40;;;;;;;;;;5014446;28;20448;-52
2021/09/17 10:27:27;;;;;;;1.98;1.00;;;;;;;;;;5017903;28;20027;-52
2021/09/17 10:29:52;;;;;;;2.90;1.70;;;;;;;;;;5018362;28;20413;-53
2021/09/17 10:32:31;;;;;;;2.92;1.70;;;;;;;;;;5021518;28;20056;-55
2021/09/17 10:35:04;;;;;;;3.03;1.50;;;;;;;;;;5019142;28;20073;-53
2021/09/17 10:37:50;;;;;;;2.75;1.05;;;;;;;;;;5017538;28;20104;-55
2021/09/17 10:40:15;;;;;;;2.10;1.00;;;;;;;;;;5017938;28;20022;-54
2021/09/17 10:42:59;;;;;;;5.75;1.73;;;;;;;;;;5017821;28;20848;-54
2021/09/17 10:45:24;;;;;;;4.60;1.55;;;;;;;;;;5016228;28;20041;-54
2021/09/17 10:47:54;;;;;;;20.85;2.38;;;;;;;;;;5017019;28;20054;-56
2021/09/17 10:50:20;;;;;;;9.02;1.25;;;;;;;;;;5017712;28;20059;-55
2021/09/17 10:52:48;;;;;;;5.25;2.22;;;;;;;;;;5015465;28;20497;-54
2021/09/17 10:55:32;;;;;;;9.90;2.38;;;;;;;;;;5011865;28;20018;-54
2021/09/17 10:58:16;;;;;;;11.73;2.40;;;;;;;;;;5015973;28;20022;-53
2021/09/17 11:00:51;;;;;;;4.22;0.80;;;;;;;;;;5011217;28;20435;-54
2021/09/17 11:03:36;;;;;;;5.45;1.20;;;;;;;;;;5014760;28;20852;-54
2021/09/17 11:08:59;;;;;;;4.15;1.30;;;;;;;;;;5017734;28;20612;-51
2021/09/17 11:11:32;;;;;;;3.42;1.40;;;;;;;;;;5014637;28;20504;-54
2021/09/17 11:14:03;;;;;;;9.40;2.65;;;;;;;;;;5015411;28;20026;-54
2021/09/17 11:16:29;;;;;;;12.23;2.88;;;;;;;;;;5019583;28;20045;-55
2021/09/17 11:19:06;;;;;;;4.43;1.48;;;;;;;;;;5013116;28;20550;-55
2021/09/17 11:21:32;;;;;;;5.95;1.85;;;;;;;;;;5015252;28;20331;-53
2021/09/17 11:23:58;;;;;;;5.45;3.15;;;;;;;;;;5015366;28;20055;-52
2021/09/17 11:26:28;;;;;;;1.60;1.02;;;;;;;;;;5012294;28;20058;-54
2021/09/17 11:29:13;;;;;;;9.43;2.00;;;;;;;;;;5013772;28;20072;-52
2021/09/17 11:31:42;;;;;;;1.90;1.00;;;;;;;;;;5016881;28;20045;-54
2021/09/17 11:34:09;;;;;;;19.30;2.40;;;;;;;;;;5013116;28;20026;-51
2021/09/17 11:36:41;;;;;;;18.15;4.60;;;;;;;;;;5017547;28;20072;-54
2021/09/17 11:39:12;;;;;;;5.65;2.85;;;;;;;;;;5020869;28;20466;-49
2021/09/17 11:41:38;;;;;;;8.68;3.83;;;;;;;;;;5014970;28;20389;-53
2021/09/17 11:44:03;;;;;;;24.15;3.38;;;;;;;;;;5015195;28;20030;-53
2021/09/17 11:46:29;;;;;;;13.50;2.00;;;;;;;;;;5016746;28;20584;-53
2021/09/17 11:48:54;;;;;;;12.80;2.28;;;;;;;;;;5015716;28;20033;-53
2021/09/17 11:51:20;;;;;;;5.72;1.20;;;;;;;;;;5013135;28;20676;-53
2021/09/17 11:53:46;;;;;;;3.50;1.40;;;;;;;;;;5013528;28;20022;-51
2021/09/17 11:56:11;;;;;;;4.78;2.20;;;;;;;;;;5013713;28;20026;-54
2021/09/17 11:58:43;;;;;;;3.55;2.35;;;;;;;;;;5017243;28;20504;-53
2021/09/17 12:01:17;;;;;;;4.63;1.58;;;;;;;;;;5013354;28;20021;-59
2021/09/17 12:03:43;;;;;;;10.48;4.15;;;;;;;;;;5016803;28;20043;-60
2021/09/17 12:06:08;;;;;;;4.00;1.70;;;;;;;;;;4971592;28;1253461;-57
2021/09/17 12:08:34;;;;;;;8.23;3.17;;;;;;;;;;5012254;28;20064;-58
2021/09/17 12:11:00;;;;;;;8.55;2.67;;;;;;;;;;5014885;28;20033;-59
2021/09/17 12:13:25;;;;;;;9.98;2.50;;;;;;;;;;5010401;28;20029;-57
2021/09/17 12:15:55;;;;;;;1.27;0.70;;;;;;;;;;5010782;28;20426;-59
2021/09/17 12:18:21;;;;;;;4.22;1.50;;;;;;;;;;5014300;28;20103;-59
2021/09/17 12:20:47;;;;;;;6.20;2.60;;;;;;;;;;5014882;28;20152;-59
2021/09/17 12:23:17;;;;;;;9.88;1.67;;;;;;;;;;5014205;28;20028;-59
2021/09/17 12:25:44;;;;;;;4.10;2.40;;;;;;;;;;5015678;28;20088;-59
2021/09/17 12:28:11;;;;;;;2.10;1.42;;;;;;;;;;5020697;28;20025;-58
2021/09/17 12:30:37;;;;;;;13.88;2.35;;;;;;;;;;5010181;28;20022;-59
2021/09/17 12:33:23;;;;;;;3.75;2.20;;;;;;;;;;5012841;28;20030;-54
2021/09/17 12:35:50;;;;;;;1.92;0.93;;;;;;;;;;5016422;28;20030;-52
2021/09/17 12:38:17;;;;;;;5.55;1.17;;;;;;;;;;5016390;28;20054;-57
2021/09/17 12:40:43;;;;;;;6.28;2.72;;;;;;;;;;5014690;28;20031;-55
2021/09/17 12:43:16;;;;;;;7.35;1.75;;;;;;;;;;5011803;28;20072;-57
2021/09/17 12:45:43;;;;;;;5.00;2.65;;;;;;;;;;5019227;28;20029;-57
2021/09/17 12:48:10;;;;;;;5.72;2.50;;;;;;;;;;5017792;28;20033;-57
2021/09/17 12:50:38;;;;;;;4.00;1.75;;;;;;;;;;5011653;28;20026;-57
2021/09/17 12:53:11;;;;;;;5.35;1.33;;;;;;;;;;5014760;28;20033;-57
2021/09/17 12:55:37;;;;;;;4.28;2.03;;;;;;;;;;5019348;28;20026;-57
2021/09/17 12:58:04;;;;;;;2.22;1.05;;;;;;;;;;5013089;28;20029;-56
2021/09/17 13:00:42;;;;;;;3.83;1.55;;;;;;;;;;5011859;28;20041;-57
2021/09/17 13:03:09;;;;;;;7.63;3.15;;;;;;;;;;5007785;28;20387;-57
2021/09/17 13:05:35;;;;;;;4.28;2.25;;;;;;;;;;5013303;28;20054;-58
2021/09/17 13:08:00;;;;;;;2.38;1.20;;;;;;;;;;5017130;28;20033;-57
2021/09/17 13:10:26;;;;;;;7.47;1.95;;;;;;;;;;5017445;28;20021;-57
2021/09/17 13:12:51;;;;;;;4.88;2.00;;;;;;;;;;5020039;28;20030;-58
2021/09/17 13:15:17;;;;;;;4.75;1.88;;;;;;;;;;5016071;28;20050;-57
2021/09/17 13:17:42;;;;;;;8.13;1.33;;;;;;;;;;5014922;28;20028;-57
2021/09/17 13:20:09;;;;;;;5.30;3.08;;;;;;;;;;5014894;28;20044;-59
2021/09/17 13:22:34;;;;;;;7.63;2.17;;;;;;;;;;5015531;28;20013;-58
2021/09/17 13:25:00;;;;;;;5.00;1.92;;;;;;;;;;5013647;28;20032;-58
2021/09/17 13:27:26;;;;;;;6.50;1.75;;;;;;;;;;5014043;28;20021;-58
2021/09/17 13:29:51;;;;;;;4.57;2.33;;;;;;;;;;5011574;28;20061;-58
2021/09/17 13:32:17;;;;;;;11.32;1.42;;;;;;;;;;5007798;28;20044;-38
2021/09/17 13:34:42;;;;;;;17.40;3.63;;;;;;;;;;5009470;28;20137;-38
2021/09/17 13:37:07;;;;;;;15.38;3.92;;;;;;;;;;5017652;28;20083;-38
2021/09/17 13:39:32;;;;;;;8.73;1.77;;;;;;;;;;5019870;28;20049;-38
2021/09/17 13:41:58;;;;;;;5.45;1.92;;;;;;;;;;5014235;28;20425;-38
2021/09/17 13:44:23;;;;;;;10.05;2.22;;;;;;;;;;5017141;28;20454;-38
2021/09/17 13:46:49;;;;;;;15.05;7.43;;;;;;;;;;5017113;28;20789;-37
2021/09/17 13:49:14;;;;;;;6.85;2.08;;;;;;;;;;5016960;28;20521;-37
2021/09/17 13:51:39;;;;;;;6.07;1.50;;;;;;;;;;5014063;28;20030;-37
2021/09/17 13:54:05;;;;;;;7.13;1.70;;;;;;;;;;5017723;28;20091;-37
2021/09/17 13:56:30;;;;;;;1.50;1.08;;;;;;;;;;5014730;28;20028;-37
2021/09/17 13:58:55;;;;;;;7.10;2.35;;;;;;;;;;5013726;28;20083;-37
2021/09/17 14:01:20;;;;;;;4.32;2.78;;;;;;;;;;5013000;28;20046;-37
2021/09/17 14:03:46;;;;;;;11.43;2.35;;;;;;;;;;5012590;28;20026;-37
2021/09/17 14:06:11;;;;;;;19.05;3.05;;;;;;;;;;5015211;28;20060;-37
2021/09/17 14:08:36;;;;;;;4.70;2.08;;;;;;;;;;5016404;28;20090;-37
2021/09/17 14:11:02;;;;;;;12.32;1.48;;;;;;;;;;5018280;28;20027;-37
2021/09/17 14:13:27;;;;;;;3.78;1.05;;;;;;;;;;5019931;28;20087;-37
2021/09/17 14:15:53;;;;;;;10.93;1.80;;;;;;;;;;5017797;28;20713;-37
2021/09/17 14:18:19;;;;;;;25.88;2.47;;;;;;;;;;5011769;28;20017;-37
2021/09/17 14:20:45;;;;;;;5.15;1.63;;;;;;;;;;5011529;28;20075;-37
2021/09/17 14:23:10;;;;;;;9.20;2.15;;;;;;;;;;5014398;28;20021;-37
2021/09/17 14:25:35;;;;;;;12.65;2.22;;;;;;;;;;5017048;28;20060;-37
2021/09/17 14:28:01;;;;;;;8.38;2.28;;;;;;;;;;5017106;28;20037;-37
2021/09/17 14:30:26;;;;;;;7.25;2.40;;;;;;;;;;5015107;28;20189;-37
2021/09/17 14:32:56;;;;;;;12.10;3.17;;;;;;;;;;5010578;28;20036;-37
2021/09/17 14:35:21;;;;;;;6.20;1.80;;;;;;;;;;5016925;28;20021;-37
2021/09/17 14:37:46;;;;;;;6.28;2.53;;;;;;;;;;5021577;28;20556;-37